sensor_id;sensor_type;location;lat;lon;timestamp;temperature;humidity
3466;DHT22;1747;48.884;9.160;2023-01-08T00:02:01;6.00;99.90
3466;DHT22;1747;48.884;9.160;2023-01-08T00:04:28;6.00;99.90
3466;DHT22;1747;48.884;9.160;2023-01-08T00:06:54;5.80;99.90
3466;DHT22;1747;48.884;9.160;2023-01-08T00:09:21;5.80;99.90
3466;DHT22;1747;48.884;9.160;2023-01-08T00:11:48;5.80;99.90
3466;DHT22;1747;48.884;9.160;2023-01-08T00:14:16;5.90;99.90
3466;DHT22;1747;48.884;9.160;2023-01-08T00:16:43;5.90;99.90
3466;DHT22;1747;48.884;9.160;2023-01-08T00:19:10;5.90;99.90
3466;DHT22;1747;48.884;9.160;2023-01-08T00:21:37;5.90;99.90
3466;DHT22;1747;48.884;9.160;2023-01-08T00:24:04;5.90;99.90
3466;DHT22;1747;48.884;9.160;2023-01-08T00:26:31;5.90;99.90
3466;DHT22;1747;48.884;9.160;2023-01-08T00:28:58;5.90;99.90
3466;DHT22;1747;48.884;9.160;2023-01-08T00:31:26;5.90;99.90
3466;DHT22;1747;48.884;9.160;2023-01-08T00:33:53;5.90;99.90
3466;DHT22;1747;48.884;9.160;2023-01-08T00:36:20;6.00;99.90
3466;DHT22;1747;48.884;9.160;2023-01-08T00:38:46;6.10;99.90
3466;DHT22;1747;48.884;9.160;2023-01-08T00:41:14;6.20;99.90
3466;DHT22;1747;48.884;9.160;2023-01-08T00:43:41;6.20;99.90
3466;DHT22;1747;48.884;9.160;2023-01-08T00:46:08;6.20;99.90
3466;DHT22;1747;48.884;9.160;2023-01-08T00:48:36;6.20;99.90
3466;DHT22;1747;48.884;9.160;2023-01-08T00:51:04;6.20;99.90
3466;DHT22;1747;48.884;9.160;2023-01-08T00:53:31;6.20;99.90
3466;DHT22;1747;48.884;9.160;2023-01-08T00:55:59;6.20;99.90
3466;DHT22;1747;48.884;9.160;2023-01-08T00:58:26;6.20;99.90
3466;DHT22;1747;48.884;9.160;2023-01-08T01:00:53;6.30;99.90
3466;DHT22;1747;48.884;9.160;2023-01-08T01:03:20;6.30;99.90
3466;DHT22;1747;48.884;9.160;2023-01-08T01:05:48;6.30;99.90
3466;DHT22;1747;48.884;9.160;2023-01-08T01:08:15;6.30;99.90
3466;DHT22;1747;48.884;9.160;2023-01-08T01:10:42;6.40;99.90
3466;DHT22;1747;48.884;9.160;2023-01-08T01:13:09;6.40;99.90
3466;DHT22;1747;48.884;9.160;2023-01-08T01:15:36;6.40;99.90
3466;DHT22;1747;48.884;9.160;2023-01-08T01:18:03;6.40;99.90
3466;DHT22;1747;48.884;9.160;2023-01-08T01:20:30;6.40;99.90
3466;DHT22;1747;48.884;9.160;2023-01-08T01:22:58;6.40;99.90
3466;DHT22;1747;48.884;9.160;2023-01-08T01:25:25;6.40;99.90
3466;DHT22;1747;48.884;9.160;2023-01-08T01:27:52;6.50;99.90
3466;DHT22;1747;48.884;9.160;2023-01-08T01:30:18;6.50;99.90
3466;DHT22;1747;48.884;9.160;2023-01-08T01:32:45;6.40;99.90
3466;DHT22;1747;48.884;9.160;2023-01-08T01:35:12;6.50;99.90
3466;DHT22;1747;48.884;9.160;2023-01-08T01:37:39;6.50;99.90
3466;DHT22;1747;48.884;9.160;2023-01-08T01:40:08;6.50;99.90
3466;DHT22;1747;48.884;9.160;2023-01-08T01:42:35;6.50;99.90
3466;DHT22;1747;48.884;9.160;2023-01-08T01:45:14;6.50;99.90
3466;DHT22;1747;48.884;9.160;2023-01-08T01:47:44;6.50;99.90
3466;DHT22;1747;48.884;9.160;2023-01-08T01:50:12;6.40;99.90
3466;DHT22;1747;48.884;9.160;2023-01-08T01:52:42;6.40;99.90
3466;DHT22;1747;48.884;9.160;2023-01-08T01:55:12;6.40;99.90
3466;DHT22;1747;48.884;9.160;2023-01-08T01:57:42;6.40;99.90
3466;DHT22;1747;48.884;9.160;2023-01-08T02:00:11;6.40;99.90
3466;DHT22;1747;48.884;9.160;2023-01-08T02:02:38;6.40;99.90
3466;DHT22;1747;48.884;9.160;2023-01-08T02:05:05;6.40;99.90
3466;DHT22;1747;48.884;9.160;2023-01-08T02:07:38;6.50;99.90
3466;DHT22;1747;48.884;9.160;2023-01-08T02:10:09;6.60;99.90
3466;DHT22;1747;48.884;9.160;2023-01-08T02:12:41;6.70;99.90
3466;DHT22;1747;48.884;9.160;2023-01-08T02:15:13;6.80;99.90
3466;DHT22;1747;48.884;9.160;2023-01-08T02:17:47;6.80;99.90
3466;DHT22;1747;48.884;9.160;2023-01-08T02:20:19;6.80;99.90
3466;DHT22;1747;48.884;9.160;2023-01-08T02:22:58;6.80;99.90
3466;DHT22;1747;48.884;9.160;2023-01-08T02:25:39;6.70;99.90
3466;DHT22;1747;48.884;9.160;2023-01-08T02:28:13;6.70;99.90
3466;DHT22;1747;48.884;9.160;2023-01-08T02:30:41;6.70;99.90
3466;DHT22;1747;48.884;9.160;2023-01-08T02:33:08;6.70;99.90
3466;DHT22;1747;48.884;9.160;2023-01-08T02:35:39;6.70;99.90
3466;DHT22;1747;48.884;9.160;2023-01-08T02:38:09;6.70;99.90
3466;DHT22;1747;48.884;9.160;2023-01-08T02:40:44;6.60;99.90
3466;DHT22;1747;48.884;9.160;2023-01-08T02:43:18;6.50;99.90
3466;DHT22;1747;48.884;9.160;2023-01-08T02:45:53;6.40;99.90
3466;DHT22;1747;48.884;9.160;2023-01-08T02:48:27;6.30;99.90
3466;DHT22;1747;48.884;9.160;2023-01-08T02:50:59;6.20;99.90
3466;DHT22;1747;48.884;9.160;2023-01-08T02:53:30;6.20;99.90
3466;DHT22;1747;48.884;9.160;2023-01-08T02:56:00;6.20;99.90
3466;DHT22;1747;48.884;9.160;2023-01-08T02:58:31;6.20;99.90
3466;DHT22;1747;48.884;9.160;2023-01-08T03:01:01;6.20;99.90
3466;DHT22;1747;48.884;9.160;2023-01-08T03:03:29;6.20;99.90
3466;DHT22;1747;48.884;9.160;2023-01-08T03:05:59;6.20;99.90
3466;DHT22;1747;48.884;9.160;2023-01-08T03:08:27;6.30;99.90
3466;DHT22;1747;48.884;9.160;2023-01-08T03:10:57;6.30;99.90
3466;DHT22;1747;48.884;9.160;2023-01-08T03:13:33;6.30;99.90
3466;DHT22;1747;48.884;9.160;2023-01-08T03:16:07;6.40;99.90
3466;DHT22;1747;48.884;9.160;2023-01-08T03:18:39;6.40;99.90
3466;DHT22;1747;48.884;9.160;2023-01-08T03:21:07;6.50;99.90
3466;DHT22;1747;48.884;9.160;2023-01-08T03:23:36;6.60;99.90
3466;DHT22;1747;48.884;9.160;2023-01-08T03:26:05;6.70;99.90
3466;DHT22;1747;48.884;9.160;2023-01-08T03:28:37;6.70;99.90
3466;DHT22;1747;48.884;9.160;2023-01-08T03:31:05;6.70;99.90
3466;DHT22;1747;48.884;9.160;2023-01-08T03:33:34;6.80;99.90
3466;DHT22;1747;48.884;9.160;2023-01-08T03:36:03;6.80;99.90
3466;DHT22;1747;48.884;9.160;2023-01-08T03:38:33;6.80;99.90
3466;DHT22;1747;48.884;9.160;2023-01-08T03:41:05;6.80;99.90
3466;DHT22;1747;48.884;9.160;2023-01-08T03:43:35;6.70;99.90
3466;DHT22;1747;48.884;9.160;2023-01-08T03:46:03;6.80;99.90
3466;DHT22;1747;48.884;9.160;2023-01-08T03:48:33;6.70;99.90
3466;DHT22;1747;48.884;9.160;2023-01-08T03:51:00;6.70;99.90
3466;DHT22;1747;48.884;9.160;2023-01-08T03:53:27;6.60;99.90
3466;DHT22;1747;48.884;9.160;2023-01-08T03:55:55;6.60;99.90
3466;DHT22;1747;48.884;9.160;2023-01-08T03:58:23;6.60;99.90
3466;DHT22;1747;48.884;9.160;2023-01-08T04:00:51;6.60;99.90
3466;DHT22;1747;48.884;9.160;2023-01-08T04:03:18;6.60;99.90
3466;DHT22;1747;48.884;9.160;2023-01-08T04:05:45;6.60;99.90
3466;DHT22;1747;48.884;9.160;2023-01-08T04:08:12;6.60;99.90
3466;DHT22;1747;48.884;9.160;2023-01-08T04:10:38;6.70;99.90
3466;DHT22;1747;48.884;9.160;2023-01-08T04:13:05;6.80;99.90
3466;DHT22;1747;48.884;9.160;2023-01-08T04:15:33;6.90;99.90
3466;DHT22;1747;48.884;9.160;2023-01-08T04:18:01;7.00;99.90
3466;DHT22;1747;48.884;9.160;2023-01-08T04:20:28;6.90;99.90
3466;DHT22;1747;48.884;9.160;2023-01-08T04:22:55;6.80;99.90
3466;DHT22;1747;48.884;9.160;2023-01-08T04:25:22;6.80;99.90
3466;DHT22;1747;48.884;9.160;2023-01-08T04:27:48;6.70;99.90
3466;DHT22;1747;48.884;9.160;2023-01-08T04:30:15;6.70;99.90
3466;DHT22;1747;48.884;9.160;2023-01-08T04:32:42;6.80;99.90
3466;DHT22;1747;48.884;9.160;2023-01-08T04:35:10;6.90;99.90
3466;DHT22;1747;48.884;9.160;2023-01-08T04:37:37;6.80;99.90
3466;DHT22;1747;48.884;9.160;2023-01-08T04:40:05;6.80;99.90
3466;DHT22;1747;48.884;9.160;2023-01-08T04:42:32;6.80;99.90
3466;DHT22;1747;48.884;9.160;2023-01-08T04:44:59;6.70;99.90
3466;DHT22;1747;48.884;9.160;2023-01-08T04:47:25;6.80;99.90
3466;DHT22;1747;48.884;9.160;2023-01-08T04:49:52;7.00;99.90
3466;DHT22;1747;48.884;9.160;2023-01-08T04:52:20;7.10;99.90
3466;DHT22;1747;48.884;9.160;2023-01-08T04:54:47;7.30;99.90
3466;DHT22;1747;48.884;9.160;2023-01-08T04:57:14;7.70;99.90
3466;DHT22;1747;48.884;9.160;2023-01-08T04:59:41;8.00;99.90
3466;DHT22;1747;48.884;9.160;2023-01-08T05:02:08;8.20;99.90
3466;DHT22;1747;48.884;9.160;2023-01-08T05:04:35;8.50;99.90
3466;DHT22;1747;48.884;9.160;2023-01-08T05:07:02;8.70;99.90
3466;DHT22;1747;48.884;9.160;2023-01-08T05:09:31;8.90;99.90
3466;DHT22;1747;48.884;9.160;2023-01-08T05:11:57;9.00;99.90
3466;DHT22;1747;48.884;9.160;2023-01-08T05:14:24;9.20;99.90
3466;DHT22;1747;48.884;9.160;2023-01-08T05:16:51;9.30;99.90
3466;DHT22;1747;48.884;9.160;2023-01-08T05:19:18;9.40;99.90
3466;DHT22;1747;48.884;9.160;2023-01-08T05:21:45;9.40;99.90
3466;DHT22;1747;48.884;9.160;2023-01-08T05:24:12;9.50;99.90
3466;DHT22;1747;48.884;9.160;2023-01-08T05:26:40;9.50;99.90
3466;DHT22;1747;48.884;9.160;2023-01-08T05:29:06;9.60;99.90
3466;DHT22;1747;48.884;9.160;2023-01-08T05:31:34;9.70;99.90
3466;DHT22;1747;48.884;9.160;2023-01-08T05:34:00;9.80;99.90
3466;DHT22;1747;48.884;9.160;2023-01-08T05:36:27;9.80;99.90
3466;DHT22;1747;48.884;9.160;2023-01-08T05:38:55;9.80;99.90
3466;DHT22;1747;48.884;9.160;2023-01-08T05:41:22;9.90;99.90
3466;DHT22;1747;48.884;9.160;2023-01-08T05:43:50;9.90;99.90
3466;DHT22;1747;48.884;9.160;2023-01-08T05:46:17;9.90;99.90
3466;DHT22;1747;48.884;9.160;2023-01-08T05:48:44;9.90;99.90
3466;DHT22;1747;48.884;9.160;2023-01-08T05:51:11;9.90;99.90
3466;DHT22;1747;48.884;9.160;2023-01-08T05:53:38;9.80;99.90
3466;DHT22;1747;48.884;9.160;2023-01-08T05:56:07;9.80;99.90
3466;DHT22;1747;48.884;9.160;2023-01-08T05:58:34;9.80;99.90
3466;DHT22;1747;48.884;9.160;2023-01-08T06:01:03;9.80;99.90
3466;DHT22;1747;48.884;9.160;2023-01-08T06:03:30;9.70;99.90
3466;DHT22;1747;48.884;9.160;2023-01-08T06:05:58;9.70;99.90
3466;DHT22;1747;48.884;9.160;2023-01-08T06:08:25;9.80;99.90
3466;DHT22;1747;48.884;9.160;2023-01-08T06:10:52;9.80;99.90
3466;DHT22;1747;48.884;9.160;2023-01-08T06:13:19;9.70;99.90
3466;DHT22;1747;48.884;9.160;2023-01-08T06:15:45;9.80;99.90
3466;DHT22;1747;48.884;9.160;2023-01-08T06:18:13;9.80;99.90
3466;DHT22;1747;48.884;9.160;2023-01-08T06:20:40;9.80;99.90
3466;DHT22;1747;48.884;9.160;2023-01-08T06:23:07;9.80;99.90
3466;DHT22;1747;48.884;9.160;2023-01-08T06:25:34;9.80;99.90
3466;DHT22;1747;48.884;9.160;2023-01-08T06:28:01;9.90;99.90
3466;DHT22;1747;48.884;9.160;2023-01-08T06:30:28;9.90;99.90
3466;DHT22;1747;48.884;9.160;2023-01-08T06:32:55;9.90;99.90
3466;DHT22;1747;48.884;9.160;2023-01-08T06:35:23;10.00;99.90
3466;DHT22;1747;48.884;9.160;2023-01-08T06:37:51;10.00;99.90
3466;DHT22;1747;48.884;9.160;2023-01-08T06:40:19;10.00;99.90
3466;DHT22;1747;48.884;9.160;2023-01-08T06:42:46;10.00;99.90
3466;DHT22;1747;48.884;9.160;2023-01-08T06:45:13;10.00;99.90
3466;DHT22;1747;48.884;9.160;2023-01-08T06:47:40;10.10;99.90
3466;DHT22;1747;48.884;9.160;2023-01-08T06:50:08;10.10;99.90
3466;DHT22;1747;48.884;9.160;2023-01-08T06:52:37;10.10;99.90
3466;DHT22;1747;48.884;9.160;2023-01-08T06:55:05;10.20;99.90
3466;DHT22;1747;48.884;9.160;2023-01-08T06:57:32;10.20;99.90
3466;DHT22;1747;48.884;9.160;2023-01-08T06:59:59;10.30;99.90
3466;DHT22;1747;48.884;9.160;2023-01-08T07:02:26;10.30;99.90
3466;DHT22;1747;48.884;9.160;2023-01-08T07:04:53;10.30;99.90
3466;DHT22;1747;48.884;9.160;2023-01-08T07:07:19;10.30;99.90
3466;DHT22;1747;48.884;9.160;2023-01-08T07:09:48;10.40;99.90
3466;DHT22;1747;48.884;9.160;2023-01-08T07:12:14;10.40;99.90
3466;DHT22;1747;48.884;9.160;2023-01-08T07:14:41;10.40;99.90
3466;DHT22;1747;48.884;9.160;2023-01-08T07:17:08;10.40;99.90
3466;DHT22;1747;48.884;9.160;2023-01-08T07:19:35;10.40;99.90
3466;DHT22;1747;48.884;9.160;2023-01-08T07:22:02;10.40;99.90
3466;DHT22;1747;48.884;9.160;2023-01-08T07:24:29;10.50;99.90
3466;DHT22;1747;48.884;9.160;2023-01-08T07:26:57;10.50;99.90
3466;DHT22;1747;48.884;9.160;2023-01-08T07:29:24;10.50;99.90
3466;DHT22;1747;48.884;9.160;2023-01-08T07:31:51;10.50;99.90
3466;DHT22;1747;48.884;9.160;2023-01-08T07:34:18;10.60;99.90
3466;DHT22;1747;48.884;9.160;2023-01-08T07:36:45;10.50;99.90
3466;DHT22;1747;48.884;9.160;2023-01-08T07:39:13;10.60;99.90
3466;DHT22;1747;48.884;9.160;2023-01-08T07:41:50;10.60;99.90
3466;DHT22;1747;48.884;9.160;2023-01-08T07:44:18;10.60;99.90
3466;DHT22;1747;48.884;9.160;2023-01-08T07:46:45;10.60;99.90
3466;DHT22;1747;48.884;9.160;2023-01-08T07:49:12;10.40;99.90
3466;DHT22;1747;48.884;9.160;2023-01-08T07:51:39;10.50;99.90
3466;DHT22;1747;48.884;9.160;2023-01-08T07:54:06;10.30;99.90
3466;DHT22;1747;48.884;9.160;2023-01-08T07:56:33;10.40;99.90
3466;DHT22;1747;48.884;9.160;2023-01-08T07:59:00;10.50;99.90
3466;DHT22;1747;48.884;9.160;2023-01-08T08:01:28;10.50;99.90
3466;DHT22;1747;48.884;9.160;2023-01-08T08:03:55;10.50;99.90
3466;DHT22;1747;48.884;9.160;2023-01-08T08:06:22;10.50;99.90
3466;DHT22;1747;48.884;9.160;2023-01-08T08:08:48;10.50;99.90
3466;DHT22;1747;48.884;9.160;2023-01-08T08:11:15;10.40;99.90
3466;DHT22;1747;48.884;9.160;2023-01-08T08:13:42;10.30;99.90
3466;DHT22;1747;48.884;9.160;2023-01-08T08:16:10;10.30;99.90
3466;DHT22;1747;48.884;9.160;2023-01-08T08:18:38;10.30;99.90
3466;DHT22;1747;48.884;9.160;2023-01-08T08:21:05;10.20;99.90
3466;DHT22;1747;48.884;9.160;2023-01-08T08:23:32;10.30;99.90
3466;DHT22;1747;48.884;9.160;2023-01-08T08:26:01;10.20;99.90
3466;DHT22;1747;48.884;9.160;2023-01-08T08:28:28;10.20;99.90
3466;DHT22;1747;48.884;9.160;2023-01-08T08:30:55;10.20;99.90
3466;DHT22;1747;48.884;9.160;2023-01-08T08:33:22;10.20;99.90
3466;DHT22;1747;48.884;9.160;2023-01-08T08:35:50;10.20;99.90
3466;DHT22;1747;48.884;9.160;2023-01-08T08:38:17;10.10;99.90
3466;DHT22;1747;48.884;9.160;2023-01-08T08:40:59;10.10;99.90
3466;DHT22;1747;48.884;9.160;2023-01-08T08:43:26;10.10;99.90
3466;DHT22;1747;48.884;9.160;2023-01-08T08:45:54;10.00;99.90
3466;DHT22;1747;48.884;9.160;2023-01-08T08:48:21;10.00;99.90
3466;DHT22;1747;48.884;9.160;2023-01-08T08:50:49;10.10;99.90
3466;DHT22;1747;48.884;9.160;2023-01-08T08:53:16;10.10;99.90
3466;DHT22;1747;48.884;9.160;2023-01-08T08:55:43;10.20;99.90
3466;DHT22;1747;48.884;9.160;2023-01-08T08:58:11;10.20;99.90
3466;DHT22;1747;48.884;9.160;2023-01-08T09:00:40;10.20;99.90
3466;DHT22;1747;48.884;9.160;2023-01-08T09:03:11;10.30;99.90
3466;DHT22;1747;48.884;9.160;2023-01-08T09:05:39;10.20;99.90
3466;DHT22;1747;48.884;9.160;2023-01-08T09:08:08;10.20;99.90
3466;DHT22;1747;48.884;9.160;2023-01-08T09:10:36;10.30;99.90
3466;DHT22;1747;48.884;9.160;2023-01-08T09:13:03;10.20;99.90
3466;DHT22;1747;48.884;9.160;2023-01-08T09:15:30;10.20;99.90
3466;DHT22;1747;48.884;9.160;2023-01-08T09:17:57;10.20;99.90
3466;DHT22;1747;48.884;9.160;2023-01-08T09:20:25;10.20;99.90
3466;DHT22;1747;48.884;9.160;2023-01-08T09:22:52;10.20;99.90
3466;DHT22;1747;48.884;9.160;2023-01-08T09:25:20;10.20;99.90
3466;DHT22;1747;48.884;9.160;2023-01-08T09:27:47;10.20;99.90
3466;DHT22;1747;48.884;9.160;2023-01-08T09:30:14;10.20;99.90
3466;DHT22;1747;48.884;9.160;2023-01-08T09:32:40;10.20;99.90
3466;DHT22;1747;48.884;9.160;2023-01-08T09:35:08;10.20;99.90
3466;DHT22;1747;48.884;9.160;2023-01-08T09:37:35;10.30;99.90
3466;DHT22;1747;48.884;9.160;2023-01-08T09:40:01;10.30;99.90
3466;DHT22;1747;48.884;9.160;2023-01-08T09:42:30;10.30;99.90
3466;DHT22;1747;48.884;9.160;2023-01-08T09:44:59;10.40;99.90
3466;DHT22;1747;48.884;9.160;2023-01-08T09:47:30;10.30;99.90
3466;DHT22;1747;48.884;9.160;2023-01-08T09:50:01;10.40;99.90
3466;DHT22;1747;48.884;9.160;2023-01-08T09:52:29;10.40;99.90
3466;DHT22;1747;48.884;9.160;2023-01-08T09:54:56;10.50;99.90
3466;DHT22;1747;48.884;9.160;2023-01-08T09:57:23;10.60;99.90
3466;DHT22;1747;48.884;9.160;2023-01-08T09:59:51;10.60;99.90
3466;DHT22;1747;48.884;9.160;2023-01-08T10:02:20;10.60;99.90
3466;DHT22;1747;48.884;9.160;2023-01-08T10:04:52;10.80;99.90
3466;DHT22;1747;48.884;9.160;2023-01-08T10:07:20;10.80;99.90
3466;DHT22;1747;48.884;9.160;2023-01-08T10:09:49;10.80;99.90
3466;DHT22;1747;48.884;9.160;2023-01-08T10:12:23;10.80;99.90
3466;DHT22;1747;48.884;9.160;2023-01-08T10:14:53;10.90;99.90
3466;DHT22;1747;48.884;9.160;2023-01-08T10:17:25;10.90;99.90
3466;DHT22;1747;48.884;9.160;2023-01-08T10:19:53;11.00;99.90
3466;DHT22;1747;48.884;9.160;2023-01-08T10:22:22;11.00;99.90
3466;DHT22;1747;48.884;9.160;2023-01-08T10:24:49;11.00;99.90
3466;DHT22;1747;48.884;9.160;2023-01-08T10:27:18;11.00;99.90
3466;DHT22;1747;48.884;9.160;2023-01-08T10:29:46;11.00;99.90
3466;DHT22;1747;48.884;9.160;2023-01-08T10:32:16;11.00;99.90
3466;DHT22;1747;48.884;9.160;2023-01-08T10:34:45;11.10;99.90
3466;DHT22;1747;48.884;9.160;2023-01-08T10:37:15;11.10;99.90
3466;DHT22;1747;48.884;9.160;2023-01-08T10:39:45;11.20;99.90
3466;DHT22;1747;48.884;9.160;2023-01-08T10:42:13;11.20;99.90
3466;DHT22;1747;48.884;9.160;2023-01-08T10:44:47;11.30;99.90
3466;DHT22;1747;48.884;9.160;2023-01-08T10:47:17;11.30;99.90
3466;DHT22;1747;48.884;9.160;2023-01-08T10:49:44;11.30;99.90
3466;DHT22;1747;48.884;9.160;2023-01-08T10:52:23;11.30;99.90
3466;DHT22;1747;48.884;9.160;2023-01-08T10:54:51;11.30;99.90
3466;DHT22;1747;48.884;9.160;2023-01-08T10:57:20;11.30;99.90
3466;DHT22;1747;48.884;9.160;2023-01-08T10:59:47;11.30;99.90
3466;DHT22;1747;48.884;9.160;2023-01-08T11:02:23;11.20;99.90
3466;DHT22;1747;48.884;9.160;2023-01-08T11:04:54;11.20;99.90
3466;DHT22;1747;48.884;9.160;2023-01-08T11:07:22;11.30;99.90
3466;DHT22;1747;48.884;9.160;2023-01-08T11:09:50;11.20;99.90
3466;DHT22;1747;48.884;9.160;2023-01-08T11:12:39;11.20;99.90
3466;DHT22;1747;48.884;9.160;2023-01-08T11:15:26;11.30;99.90
3466;DHT22;1747;48.884;9.160;2023-01-08T11:18:06;11.10;99.90
3466;DHT22;1747;48.884;9.160;2023-01-08T11:20:37;11.20;99.90
3466;DHT22;1747;48.884;9.160;2023-01-08T11:23:14;11.40;99.90
3466;DHT22;1747;48.884;9.160;2023-01-08T11:25:44;11.40;99.90
3466;DHT22;1747;48.884;9.160;2023-01-08T11:28:15;11.40;99.90
3466;DHT22;1747;48.884;9.160;2023-01-08T11:30:53;11.40;99.90
3466;DHT22;1747;48.884;9.160;2023-01-08T11:33:26;11.40;99.90
3466;DHT22;1747;48.884;9.160;2023-01-08T11:36:01;11.40;99.90
3466;DHT22;1747;48.884;9.160;2023-01-08T11:38:29;11.50;99.90
3466;DHT22;1747;48.884;9.160;2023-01-08T11:41:03;11.50;99.90
3466;DHT22;1747;48.884;9.160;2023-01-08T11:43:38;11.60;99.90
3466;DHT22;1747;48.884;9.160;2023-01-08T11:46:19;11.70;99.90
3466;DHT22;1747;48.884;9.160;2023-01-08T11:49:12;11.70;99.90
3466;DHT22;1747;48.884;9.160;2023-01-08T11:51:56;11.60;99.90
3466;DHT22;1747;48.884;9.160;2023-01-08T11:54:35;11.60;99.90
3466;DHT22;1747;48.884;9.160;2023-01-08T11:57:16;11.70;99.90
3466;DHT22;1747;48.884;9.160;2023-01-08T11:59:55;11.80;99.90
3466;DHT22;1747;48.884;9.160;2023-01-08T12:02:33;11.80;99.90
3466;DHT22;1747;48.884;9.160;2023-01-08T12:05:22;11.90;99.90
3466;DHT22;1747;48.884;9.160;2023-01-08T12:07:57;11.90;99.90
3466;DHT22;1747;48.884;9.160;2023-01-08T12:10:29;11.80;99.90
3466;DHT22;1747;48.884;9.160;2023-01-08T12:13:05;11.80;99.90
3466;DHT22;1747;48.884;9.160;2023-01-08T12:15:40;11.80;99.90
3466;DHT22;1747;48.884;9.160;2023-01-08T12:18:23;11.80;99.90
3466;DHT22;1747;48.884;9.160;2023-01-08T12:20:58;11.80;99.90
3466;DHT22;1747;48.884;9.160;2023-01-08T12:23:41;11.80;99.90
3466;DHT22;1747;48.884;9.160;2023-01-08T12:26:18;11.90;99.90
3466;DHT22;1747;48.884;9.160;2023-01-08T12:29:17;11.90;99.90
3466;DHT22;1747;48.884;9.160;2023-01-08T12:32:04;12.00;99.90
3466;DHT22;1747;48.884;9.160;2023-01-08T12:34:42;12.00;99.90
3466;DHT22;1747;48.884;9.160;2023-01-08T12:37:16;11.90;99.90
3466;DHT22;1747;48.884;9.160;2023-01-08T12:39:50;12.00;99.90
3466;DHT22;1747;48.884;9.160;2023-01-08T12:42:22;11.80;99.90
3466;DHT22;1747;48.884;9.160;2023-01-08T12:44:54;11.80;99.90
3466;DHT22;1747;48.884;9.160;2023-01-08T12:47:25;11.80;99.90
3466;DHT22;1747;48.884;9.160;2023-01-08T12:50:00;11.90;99.90
3466;DHT22;1747;48.884;9.160;2023-01-08T12:52:33;12.00;99.90
3466;DHT22;1747;48.884;9.160;2023-01-08T12:55:08;12.00;99.90
3466;DHT22;1747;48.884;9.160;2023-01-08T12:57:45;12.10;99.90
3466;DHT22;1747;48.884;9.160;2023-01-08T13:00:18;12.10;99.90
3466;DHT22;1747;48.884;9.160;2023-01-08T13:02:52;12.10;99.90
3466;DHT22;1747;48.884;9.160;2023-01-08T13:05:30;12.20;99.90
3466;DHT22;1747;48.884;9.160;2023-01-08T13:08:00;12.10;99.90
3466;DHT22;1747;48.884;9.160;2023-01-08T13:10:33;12.20;99.90
3466;DHT22;1747;48.884;9.160;2023-01-08T13:13:01;12.20;99.90
3466;DHT22;1747;48.884;9.160;2023-01-08T13:15:30;12.20;99.90
3466;DHT22;1747;48.884;9.160;2023-01-08T13:18:01;12.10;99.90
3466;DHT22;1747;48.884;9.160;2023-01-08T13:20:31;12.20;99.90
3466;DHT22;1747;48.884;9.160;2023-01-08T13:23:01;12.20;99.90
3466;DHT22;1747;48.884;9.160;2023-01-08T13:25:32;12.20;99.90
3466;DHT22;1747;48.884;9.160;2023-01-08T13:28:01;12.00;99.90
3466;DHT22;1747;48.884;9.160;2023-01-08T13:30:42;12.00;99.90
3466;DHT22;1747;48.884;9.160;2023-01-08T13:33:27;12.00;99.90
3466;DHT22;1747;48.884;9.160;2023-01-08T13:36:16;12.10;99.90
3466;DHT22;1747;48.884;9.160;2023-01-08T13:38:59;12.00;99.90
3466;DHT22;1747;48.884;9.160;2023-01-08T13:41:29;12.00;99.90
3466;DHT22;1747;48.884;9.160;2023-01-08T13:44:02;12.00;99.90
3466;DHT22;1747;48.884;9.160;2023-01-08T13:46:31;11.90;99.90
3466;DHT22;1747;48.884;9.160;2023-01-08T13:49:02;11.90;99.90
3466;DHT22;1747;48.884;9.160;2023-01-08T13:51:38;11.60;99.90
3466;DHT22;1747;48.884;9.160;2023-01-08T13:54:18;11.50;99.90
3466;DHT22;1747;48.884;9.160;2023-01-08T13:56:46;11.60;99.90
3466;DHT22;1747;48.884;9.160;2023-01-08T13:59:25;11.60;99.90
3466;DHT22;1747;48.884;9.160;2023-01-08T14:01:53;11.70;99.90
3466;DHT22;1747;48.884;9.160;2023-01-08T14:04:20;11.80;99.90
3466;DHT22;1747;48.884;9.160;2023-01-08T14:06:47;11.90;99.90
3466;DHT22;1747;48.884;9.160;2023-01-08T14:09:21;11.80;99.90
3466;DHT22;1747;48.884;9.160;2023-01-08T14:11:50;11.90;99.90
3466;DHT22;1747;48.884;9.160;2023-01-08T14:14:20;11.90;99.90
3466;DHT22;1747;48.884;9.160;2023-01-08T14:16:49;12.00;99.90
3466;DHT22;1747;48.884;9.160;2023-01-08T14:19:18;12.00;99.90
3466;DHT22;1747;48.884;9.160;2023-01-08T14:21:47;12.00;99.90
3466;DHT22;1747;48.884;9.160;2023-01-08T14:24:15;12.30;99.90
3466;DHT22;1747;48.884;9.160;2023-01-08T14:26:50;12.20;99.90
3466;DHT22;1747;48.884;9.160;2023-01-08T14:29:23;12.30;99.90
3466;DHT22;1747;48.884;9.160;2023-01-08T14:31:52;12.40;99.90
3466;DHT22;1747;48.884;9.160;2023-01-08T14:34:21;12.30;99.90
3466;DHT22;1747;48.884;9.160;2023-01-08T14:36:49;12.40;99.90
3466;DHT22;1747;48.884;9.160;2023-01-08T14:39:25;12.30;99.90
3466;DHT22;1747;48.884;9.160;2023-01-08T14:42:04;12.30;99.90
3466;DHT22;1747;48.884;9.160;2023-01-08T14:44:56;12.10;99.90
3466;DHT22;1747;48.884;9.160;2023-01-08T14:47:34;11.90;99.90
3466;DHT22;1747;48.884;9.160;2023-01-08T14:50:03;11.90;99.90
3466;DHT22;1747;48.884;9.160;2023-01-08T14:52:31;11.90;99.90
3466;DHT22;1747;48.884;9.160;2023-01-08T14:55:01;11.70;99.90
3466;DHT22;1747;48.884;9.160;2023-01-08T14:57:30;11.80;99.90
3466;DHT22;1747;48.884;9.160;2023-01-08T14:59:59;11.80;99.90
3466;DHT22;1747;48.884;9.160;2023-01-08T15:02:30;11.80;99.90
3466;DHT22;1747;48.884;9.160;2023-01-08T15:05:02;11.90;99.90
3466;DHT22;1747;48.884;9.160;2023-01-08T15:07:29;12.10;99.90
3466;DHT22;1747;48.884;9.160;2023-01-08T15:12:33;11.90;99.90
3466;DHT22;1747;48.884;9.160;2023-01-08T15:15:10;11.70;99.90
3466;DHT22;1747;48.884;9.160;2023-01-08T15:17:38;11.90;99.90
3466;DHT22;1747;48.884;9.160;2023-01-08T15:20:07;11.90;99.90
3466;DHT22;1747;48.884;9.160;2023-01-08T15:22:43;11.90;99.90
3466;DHT22;1747;48.884;9.160;2023-01-08T15:25:15;12.00;99.90
3466;DHT22;1747;48.884;9.160;2023-01-08T15:27:50;11.90;99.90
3466;DHT22;1747;48.884;9.160;2023-01-08T15:30:24;11.70;99.90
3466;DHT22;1747;48.884;9.160;2023-01-08T15:32:51;11.50;99.90
3466;DHT22;1747;48.884;9.160;2023-01-08T15:35:19;11.40;99.90
3466;DHT22;1747;48.884;9.160;2023-01-08T15:37:50;11.30;99.90
3466;DHT22;1747;48.884;9.160;2023-01-08T15:40:17;11.20;99.90
3466;DHT22;1747;48.884;9.160;2023-01-08T15:42:43;11.10;99.90
3466;DHT22;1747;48.884;9.160;2023-01-08T15:45:29;11.00;99.90
3466;DHT22;1747;48.884;9.160;2023-01-08T15:47:57;11.10;99.90
3466;DHT22;1747;48.884;9.160;2023-01-08T15:50:25;11.20;99.90
3466;DHT22;1747;48.884;9.160;2023-01-08T15:52:53;11.10;99.90
3466;DHT22;1747;48.884;9.160;2023-01-08T15:55:23;11.10;99.90
3466;DHT22;1747;48.884;9.160;2023-01-08T15:57:50;11.10;99.90
3466;DHT22;1747;48.884;9.160;2023-01-08T16:00:18;11.00;99.90
3466;DHT22;1747;48.884;9.160;2023-01-08T16:02:49;10.90;99.90
3466;DHT22;1747;48.884;9.160;2023-01-08T16:05:17;10.90;99.90
3466;DHT22;1747;48.884;9.160;2023-01-08T16:07:45;10.90;99.90
3466;DHT22;1747;48.884;9.160;2023-01-08T16:10:13;10.90;99.90
3466;DHT22;1747;48.884;9.160;2023-01-08T16:12:40;11.00;99.90
3466;DHT22;1747;48.884;9.160;2023-01-08T16:15:09;11.00;99.90
3466;DHT22;1747;48.884;9.160;2023-01-08T16:17:36;11.10;99.90
3466;DHT22;1747;48.884;9.160;2023-01-08T16:20:06;11.10;99.90
3466;DHT22;1747;48.884;9.160;2023-01-08T16:22:33;11.20;99.90
3466;DHT22;1747;48.884;9.160;2023-01-08T16:25:00;11.20;99.90
3466;DHT22;1747;48.884;9.160;2023-01-08T16:27:29;11.30;99.90